Time;durP1;ratioP1;P1;durP2;ratioP2;P2;SDS_P1;SDS_P2;PMS_P1;PMS_P2;Temp;Humidity;BMP_temperature;BMP_pressure;BME280_temperature;BME280_humidity;BME280_pressure;Samples;Min_cycle;Max_cycle;Signal;HPM_P1;HPM_P2
2024/01/15 01:22:44;;;;;;;0.20;0.20;;;;;;;4.00;99.73;98416.44;5043749;23;20068;-88
2024/01/15 01:25:09;;;;;;;0.10;0.10;;;;;;;4.11;98.47;98411.97;4971140;28;20037;-89
2024/01/15 01:27:35;;;;;;;1.13;0.63;;;;;;;3.98;98.27;98405.41;4972077;28;20426;-88
2024/01/15 01:30:01;;;;;;;0.20;0.20;;;;;;;4.18;98.56;98393.41;4990579;28;20033;-87
2024/01/15 01:32:26;;;;;;;0.20;0.20;;;;;;;4.14;98.62;98382.72;4981642;28;20100;-88
2024/01/15 04:34:09;;;;;;;0.65;0.52;;;;;;;4.22;100.00;98397.63;5236824;22;20121;-89
2024/01/15 04:37:07;;;;;;;0.20;0.20;;;;;;;4.17;99.41;98399.84;5002287;28;20497;-90
2024/01/15 04:39:38;;;;;;;3.03;0.70;;;;;;;4.16;99.40;98401.75;5001940;28;20033;-90
2024/01/15 04:42:36;;;;;;;0.52;0.52;;;;;;;3.90;99.80;98409.13;5008308;28;20060;-89
2024/01/15 04:45:28;;;;;;;0.30;0.30;;;;;;;3.88;100.00;98412.16;5007854;28;20067;-89
2024/01/15 04:48:52;;;;;;;0.30;0.30;;;;;;;4.06;100.00;98409.66;4987812;28;20064;-88
2024/01/15 04:51:26;;;;;;;0.80;0.50;;;;;;;4.06;99.63;98414.97;4947824;28;20124;-90
2024/01/15 04:54:23;;;;;;;0.30;0.30;;;;;;;3.91;99.42;98405.34;4982096;28;20297;-89
2024/01/15 05:01:18;;;;;;;;;;;;;;;;;;;;;
2024/01/15 05:07:20;;;;;;;;;;;;;;;4.00;99.70;98408.44;4999734;28;20049;-89
2024/01/15 05:10:10;;;;;;;0.20;0.20;;;;;;;4.02;99.76;98404.31;4984020;28;19913;-90
2024/01/15 05:17:04;;;;;;;;;;;;;;;;;;;;;
2024/01/15 05:28:09;;;;;;;0.30;0.30;;;;;;;4.19;97.05;98410.91;4917970;29;20036;-90
2024/01/15 05:31:12;;;;;;;0.20;0.20;;;;;;;3.85;98.06;98412.13;4985670;28;20041;-90
2024/01/15 05:38:12;;;;;;;0.30;0.30;;;;;;;4.19;97.66;98416.22;4923312;28;20034;-89
2024/01/15 05:45:04;;;;;;;0.20;0.20;;;;;;;4.17;97.74;98413.94;5002030;28;20048;-89
2024/01/15 05:48:11;;;;;;;0.50;0.50;;;;;;;4.26;97.19;98408.28;4979759;28;20297;-89
2024/01/15 05:58:44;;;;;;;0.10;0.10;;;;;;;4.24;98.84;98418.56;4998239;28;20037;-90
2024/01/15 06:02:07;;;;;;;;;;;;;;;;;;;;;
2024/01/15 06:19:57;;;;;;;0.20;0.20;;;;;;;3.99;100.00;98433.56;4980200;28;20165;-75
2024/01/15 06:22:23;;;;;;;0.10;0.10;;;;;;;3.93;100.00;98435.75;4983273;28;20113;-75
2024/01/15 06:24:48;;;;;;;0.20;0.20;;;;;;;4.13;99.55;98433.69;4985964;28;20475;-79
2024/01/15 06:27:14;;;;;;;0.20;0.20;;;;;;;4.14;99.31;98432.56;4985201;28;20068;-75
2024/01/15 06:29:44;;;;;;;0.57;0.57;;;;;;;4.05;99.28;98429.41;4985123;28;20088;-75
2024/01/15 06:32:09;;;;;;;0.50;0.50;;;;;;;4.14;98.90;98429.91;4987438;28;20456;-75
2024/01/15 06:34:35;;;;;;;0.52;0.47;;;;;;;3.97;99.53;98420.59;4982827;28;20068;-75
2024/01/15 06:37:00;;;;;;;0.43;0.43;;;;;;;4.17;99.00;98423.81;4980461;28;20092;-75
2024/01/15 06:39:26;;;;;;;3.60;0.85;;;;;;;4.07;99.52;98424.47;4988201;28;21065;-76
2024/01/15 06:41:51;;;;;;;0.20;0.20;;;;;;;4.11;99.75;98434.03;4980321;28;20491;-75
2024/01/15 06:44:16;;;;;;;0.20;0.20;;;;;;;4.27;99.37;98428.47;4990287;28;20437;-75
2024/01/15 06:46:43;;;;;;;0.20;0.20;;;;;;;4.48;98.17;98431.31;4985517;28;20069;-75
2024/01/15 06:49:08;;;;;;;0.40;0.40;;;;;;;4.50;97.35;98434.38;4986218;28;20026;-77
2024/01/15 06:51:34;;;;;;;0.43;0.43;;;;;;;4.38;97.43;98435.44;4989337;28;20032;-76
2024/01/15 06:54:00;;;;;;;0.30;0.30;;;;;;;4.14;98.53;98437.88;5002841;28;20426;-75
2024/01/15 06:56:25;;;;;;;0.20;0.20;;;;;;;4.32;98.65;98433.47;5007324;28;20029;-76
2024/01/15 06:58:50;;;;;;;0.45;0.45;;;;;;;4.54;97.25;98427.94;5004986;28;20034;-75
2024/01/15 07:01:16;;;;;;;0.28;0.28;;;;;;;4.42;96.52;98433.56;4999683;28;20014;-75
2024/01/15 07:03:42;;;;;;;1.10;0.38;;;;;;;4.32;97.61;98438.78;5001520;28;20051;-75
2024/01/15 07:06:07;;;;;;;0.17;0.17;;;;;;;4.34;97.87;98445.28;4990400;28;20105;-75
2024/01/15 07:08:32;;;;;;;0.20;0.20;;;;;;;4.43;97.36;98442.31;4996728;28;20041;-75
2024/01/15 07:11:00;;;;;;;0.40;0.20;;;;;;;4.36;97.22;98426.25;5004413;28;20030;-76
2024/01/15 07:13:26;;;;;;;0.75;0.57;;;;;;;4.23;97.52;98441.78;5004859;28;20719;-76
2024/01/15 07:15:51;;;;;;;0.20;0.20;;;;;;;4.09;98.34;98444.28;5007142;28;20104;-75
2024/01/15 07:18:17;;;;;;;0.30;0.30;;;;;;;4.19;98.03;98443.63;4970862;28;20081;-75
2024/01/15 07:20:42;;;;;;;0.25;0.25;;;;;;;4.38;97.65;98454.06;5006317;28;20048;-75
2024/01/15 07:23:08;;;;;;;0.55;0.35;;;;;;;4.07;97.67;98451.09;4980654;28;20034;-76
2024/01/15 07:25:33;;;;;;;1.55;1.15;;;;;;;4.05;97.81;98456.81;4990963;28;20036;-75
2024/01/15 07:27:59;;;;;;;0.20;0.20;;;;;;;4.35;97.37;98451.38;5005825;28;20039;-75
2024/01/15 07:30:24;;;;;;;0.60;0.60;;;;;;;4.31;96.94;98458.56;5003660;28;20038;-76
2024/01/15 07:32:50;;;;;;;0.30;0.30;;;;;;;4.11;97.47;98458.00;4997379;28;20407;-76
2024/01/15 07:35:19;;;;;;;0.40;0.40;;;;;;;4.25;97.68;98473.34;4997807;28;20494;-75
2024/01/15 07:37:44;;;;;;;0.20;0.20;;;;;;;4.35;96.41;98468.16;5003533;28;20041;-75
2024/01/15 07:40:10;;;;;;;0.30;0.30;;;;;;;4.18;97.24;98467.97;4974989;28;20033;-76
2024/01/15 07:42:36;;;;;;;0.20;0.20;;;;;;;4.27;96.54;98466.53;5004332;28;20101;-75
2024/01/15 07:45:01;;;;;;;0.47;0.43;;;;;;;4.24;97.50;98461.19;5002752;28;20061;-75
2024/01/15 07:47:27;;;;;;;0.73;0.57;;;;;;;4.32;96.65;98470.75;5008035;28;20030;-75
2024/01/15 07:49:53;;;;;;;0.20;0.20;;;;;;;4.44;95.99;98475.81;4999155;28;20044;-75
2024/01/15 07:52:19;;;;;;;0.20;0.20;;;;;;;4.03;96.92;98477.69;5006337;28;20030;-75
2024/01/15 07:54:45;;;;;;;0.28;0.28;;;;;;;3.96;97.58;98479.53;5007392;28;20410;-76
2024/01/15 07:57:10;;;;;;;0.35;0.35;;;;;;;4.27;97.16;98479.84;5004016;28;20029;-75
2024/01/15 07:59:36;;;;;;;0.30;0.30;;;;;;;4.12;97.09;98480.81;5003846;28;20113;-75
2024/01/15 08:02:01;;;;;;;0.45;0.45;;;;;;;4.34;95.82;98473.81;4985806;28;20264;-75
2024/01/15 08:04:27;;;;;;;0.20;0.20;;;;;;;4.33;95.95;98480.28;5006366;28;20108;-75
2024/01/15 08:06:52;;;;;;;0.40;0.40;;;;;;;4.38;95.08;98477.28;5000366;28;20486;-76
2024/01/15 08:09:18;;;;;;;0.20;0.20;;;;;;;4.46;94.41;98478.88;5007929;28;20540;-75
2024/01/15 08:11:43;;;;;;;0.30;0.30;;;;;;;4.34;95.07;98477.25;5006663;28;20104;-75
2024/01/15 08:14:10;;;;;;;0.30;0.30;;;;;;;4.34;95.56;98477.25;5002980;28;20032;-76
2024/01/15 08:16:36;;;;;;;0.30;0.30;;;;;;;4.48;94.45;98484.59;5001209;28;20126;-75
2024/01/15 08:19:02;;;;;;;0.20;0.20;;;;;;;4.49;94.10;98480.81;5005729;28;20038;-75
2024/01/15 08:21:31;;;;;;;0.30;0.30;;;;;;;4.23;95.14;98481.72;5006573;28;20025;-75
2024/01/15 08:23:58;;;;;;;0.40;0.40;;;;;;;4.33;95.60;98469.63;4988250;28;20053;-75
2024/01/15 08:26:24;;;;;;;0.20;0.20;;;;;;;4.35;94.65;98478.03;4992207;28;20034;-75
2024/01/15 08:28:49;;;;;;;0.20;0.20;;;;;;;4.53;94.03;98473.59;5003016;28;20403;-75
2024/01/15 08:31:15;;;;;;;0.38;0.38;;;;;;;4.59;94.13;98475.56;5000206;28;20026;-76
2024/01/15 08:33:40;;;;;;;1.48;0.70;;;;;;;4.47;94.30;98481.16;4993650;28;20030;-75
2024/01/15 08:36:06;;;;;;;0.40;0.40;;;;;;;4.58;94.54;98486.59;4988361;28;20022;-76
2024/01/15 08:38:31;;;;;;;0.30;0.30;;;;;;;4.56;94.43;98492.31;5001424;28;20103;-75
2024/01/15 08:40:58;;;;;;;0.88;0.68;;;;;;;4.59;93.97;98506.78;5006251;28;20450;-75
2024/01/15 08:43:24;;;;;;;0.40;0.35;;;;;;;4.53;93.95;98494.91;5001433;28;20033;-75
2024/01/15 08:45:50;;;;;;;0.20;0.20;;;;;;;4.42;94.52;98500.16;4990212;28;20034;-75
2024/01/15 08:48:16;;;;;;;0.20;0.20;;;;;;;4.49;95.71;98507.47;5007305;28;20429;-75
2024/01/15 08:50:42;;;;;;;0.30;0.30;;;;;;;4.34;95.16;98511.88;5008487;28;20033;-76
2024/01/15 08:53:07;;;;;;;0.30;0.30;;;;;;;4.36;95.04;98522.94;4989767;28;20121;-75
2024/01/15 08:55:33;;;;;;;0.20;0.20;;;;;;;4.46;95.38;98516.94;5007643;28;20025;-75
2024/01/15 08:57:58;;;;;;;0.20;0.20;;;;;;;4.64;94.59;98519.78;5002958;28;20495;-75
2024/01/15 09:00:24;;;;;;;0.20;0.20;;;;;;;4.41;94.74;98525.25;4990934;28;20402;-75
2024/01/15 09:02:49;;;;;;;0.30;0.30;;;;;;;4.33;96.33;98517.59;4984215;28;20391;-75
2024/01/15 09:05:15;;;;;;;0.20;0.20;;;;;;;4.55;95.14;98513.97;4993090;28;20037;-75
2024/01/15 09:07:40;;;;;;;0.47;0.45;;;;;;;4.50;95.28;98522.31;4990941;28;20115;-75
2024/01/15 09:10:06;;;;;;;0.22;0.22;;;;;;;4.28;96.79;98528.53;4984675;28;20054;-75
2024/01/15 09:12:32;;;;;;;0.20;0.20;;;;;;;4.56;95.94;98531.50;5007292;28;20115;-75
2024/01/15 09:14:57;;;;;;;0.30;0.30;;;;;;;4.49;95.08;98526.13;5003874;28;20148;-75
2024/01/15 09:17:23;;;;;;;0.28;0.22;;;;;;;4.44;95.40;98524.53;5001708;28;20032;-75
2024/01/15 09:19:49;;;;;;;0.20;0.20;;;;;;;4.55;95.73;98529.97;5005768;28;20402;-75
2024/01/15 09:22:18;;;;;;;0.30;0.30;;;;;;;4.42;95.75;98521.47;4989474;28;20505;-76
2024/01/15 09:24:44;;;;;;;1.10;0.60;;;;;;;4.52;95.88;98541.34;5003377;28;20030;-77
2024/01/15 09:27:09;;;;;;;0.88;0.65;;;;;;;4.41;96.57;98529.84;5004877;28;20022;-78
2024/01/15 09:29:37;;;;;;;0.38;0.38;;;;;;;4.38;97.19;98526.00;4996096;28;20129;-77
2024/01/15 09:32:04;;;;;;;0.20;0.20;;;;;;;4.46;96.34;98546.25;4994692;28;20036;-77
2024/01/15 09:34:29;;;;;;;0.25;0.25;;;;;;;4.24;96.79;98544.50;5006285;28;20560;-77
2024/01/15 09:36:55;;;;;;;0.20;0.20;;;;;;;4.26;97.46;98544.13;4990906;28;20045;-78
2024/01/15 09:39:21;;;;;;;0.28;0.28;;;;;;;4.36;97.11;98551.47;5014514;28;20576;-77
2024/01/15 09:41:47;;;;;;;0.40;0.40;;;;;;;4.42;97.80;98563.34;5005741;28;20014;-77
2024/01/15 09:44:16;;;;;;;0.40;0.40;;;;;;;4.46;98.45;98569.47;5009196;28;20034;-77
2024/01/15 09:46:44;;;;;;;0.30;0.30;;;;;;;4.58;97.31;98559.31;5008231;28;20454;-77
2024/01/15 09:49:10;;;;;;;3.60;0.80;;;;;;;4.45;97.34;98555.38;4989631;28;20027;-78
2024/01/15 09:51:36;;;;;;;0.30;0.30;;;;;;;4.36;96.98;98572.78;5009161;28;20065;-77
2024/01/15 09:54:03;;;;;;;0.20;0.20;;;;;;;4.32;98.01;98577.31;4989506;28;20022;-78
2024/01/15 09:56:30;;;;;;;0.25;0.25;;;;;;;4.55;96.96;98572.59;4993536;28;20083;-77
2024/01/15 09:58:57;;;;;;;0.20;0.20;;;;;;;4.10;97.74;98572.88;5002519;28;20038;-77
2024/01/15 10:01:23;;;;;;;0.25;0.25;;;;;;;4.20;97.87;98567.66;5002804;28;20407;-77
2024/01/15 10:03:50;;;;;;;0.38;0.38;;;;;;;4.19;97.61;98573.34;4997927;28;20036;-77
2024/01/15 10:06:19;;;;;;;0.30;0.30;;;;;;;3.89;99.14;98581.34;5007596;28;20030;-77
2024/01/15 10:08:52;;;;;;;0.20;0.20;;;;;;;3.88;99.56;98573.75;4989025;28;20044;-77
2024/01/15 10:11:17;;;;;;;6.07;0.95;;;;;;;3.91;99.61;98586.34;5009714;28;20491;-77
2024/01/15 10:13:44;;;;;;;0.20;0.20;;;;;;;3.88;100.00;98592.38;5004607;28;20030;-78
2024/01/15 10:16:09;;;;;;;0.10;0.10;;;;;;;3.85;100.00;98595.75;4979662;28;20038;-77
2024/01/15 10:18:36;;;;;;;0.20;0.20;;;;;;;3.77;100.00;98604.78;4992761;28;20048;-77
2024/01/15 10:21:08;;;;;;;0.20;0.20;;;;;;;4.07;100.00;98595.66;5004095;28;20038;-77
2024/01/15 10:23:34;;;;;;;0.55;0.55;;;;;;;3.96;99.48;98604.66;5001157;28;20034;-78
2024/01/15 10:26:00;;;;;;;0.28;0.28;;;;;;;4.11;99.54;98601.03;4990290;28;20032;-78
2024/01/15 10:28:27;;;;;;;0.30;0.30;;;;;;;4.01;98.94;98609.66;5004624;28;20053;-78
2024/01/15 10:30:55;;;;;;;0.22;0.22;;;;;;;4.09;98.78;98608.59;5003992;28;20462;-78
2024/01/15 10:33:26;;;;;;;0.25;0.25;;;;;;;4.20;98.72;98609.53;5001903;28;20491;-78
2024/01/15 10:35:55;;;;;;;0.60;0.60;;;;;;;4.25;98.12;98614.53;5010166;28;20029;-78
2024/01/15 10:38:22;;;;;;;0.22;0.22;;;;;;;4.25;98.94;98606.53;4990013;28;20034;-78
2024/01/15 10:40:51;;;;;;;0.25;0.25;;;;;;;4.19;98.55;98611.41;4982755;28;20388;-77
2024/01/15 10:43:20;;;;;;;0.63;0.63;;;;;;;4.23;98.72;98617.56;4989245;28;20046;-77
2024/01/15 10:45:46;;;;;;;0.20;0.20;;;;;;;4.35;98.12;98622.66;4977391;28;20022;-77
2024/01/15 10:48:12;;;;;;;0.20;0.20;;;;;;;4.37;98.65;98623.06;4986988;28;20034;-77
2024/01/15 10:50:38;;;;;;;0.32;0.32;;;;;;;4.31;98.59;98621.06;4980139;28;20108;-77
2024/01/15 10:53:05;;;;;;;0.30;0.30;;;;;;;4.51;98.67;98635.75;4972124;28;20498;-77
2024/01/15 10:55:32;;;;;;;0.20;0.20;;;;;;;4.55;98.12;98642.66;4981083;28;20088;-77
2024/01/15 10:57:57;;;;;;;0.47;0.45;;;;;;;4.45;98.47;98632.63;4982186;28;20112;-77
2024/01/15 11:00:25;;;;;;;0.50;0.50;;;;;;;4.47;98.40;98645.63;4984764;28;20118;-77
2024/01/15 11:02:51;;;;;;;0.68;0.68;;;;;;;4.41;98.83;98644.41;4979423;28;20105;-77
2024/01/15 11:05:21;;;;;;;0.80;0.80;;;;;;;4.25;99.20;98636.59;4964262;28;20128;-77
2024/01/15 11:07:51;;;;;;;0.60;0.60;;;;;;;4.46;99.11;98638.75;4966476;28;20026;-77
2024/01/15 11:10:41;;;;;;;0.35;0.35;;;;;;;4.25;100.00;98631.28;4982107;28;20034;-77
2024/01/15 11:13:15;;;;;;;0.40;0.40;;;;;;;4.36;99.48;98634.06;4985906;28;20127;-77
2024/01/15 11:16:01;;;;;;;0.50;0.50;;;;;;;4.28;98.92;98643.84;4982211;28;20045;-78
2024/01/15 11:18:27;;;;;;;0.20;0.20;;;;;;;4.37;99.01;98631.03;4966930;28;20026;-77
2024/01/15 11:21:19;;;;;;;1.20;1.10;;;;;;;4.18;99.54;98644.50;4981533;28;20036;-77
2024/01/15 11:23:51;;;;;;;2.70;0.70;;;;;;;4.08;99.95;98639.81;4984441;28;20042;-77
2024/01/15 11:26:28;;;;;;;0.30;0.30;;;;;;;4.17;100.00;98642.19;4975562;28;20383;-78
2024/01/15 11:28:56;;;;;;;0.43;0.43;;;;;;;4.03;100.00;98645.44;4981085;28;20052;-77
2024/01/15 11:31:49;;;;;;;0.45;0.45;;;;;;;3.95;100.00;98640.41;4988926;28;20022;-77
2024/01/15 11:34:14;;;;;;;0.30;0.30;;;;;;;4.19;100.00;98643.38;5006292;28;20048;-78
2024/01/15 11:36:46;;;;;;;0.38;0.38;;;;;;;4.28;99.73;98632.44;5003945;28;20026;-77
2024/01/15 11:39:26;;;;;;;0.75;0.68;;;;;;;4.33;99.67;98640.13;4987280;28;20081;-77
2024/01/15 11:41:55;;;;;;;0.70;0.70;;;;;;;4.25;99.12;98644.59;4986264;28;20487;-77
2024/01/15 23:44:56;;;;;;;0.70;0.70;;;;;;;2.99;90.36;99418.91;6219314;22;20067;-73
2024/01/15 23:47:23;;;;;;;0.43;0.43;;;;;;;3.03;90.55;99433.84;4949817;28;20112;-76
2024/01/15 23:49:50;;;;;;;2.00;0.85;;;;;;;3.08;90.98;99430.94;4959470;28;20047;-76
2024/01/15 23:52:15;;;;;;;0.40;0.40;;;;;;;2.99;90.53;99443.59;4966300;28;20498;-76
2024/01/15 23:54:41;;;;;;;0.75;0.75;;;;;;;2.93;91.13;99441.50;4961733;28;20032;-76
2024/01/15 23:57:06;;;;;;;2.33;0.73;;;;;;;2.75;91.28;99435.63;4936231;28;20035;-76
2024/01/15 23:59:34;;;;;;;0.65;0.65;;;;;;;2.94;91.80;99438.53;4937299;28;20515;-76
